Time;durP1;ratioP1;P1;durP2;ratioP2;P2;SDS_P1;SDS_P2;PMS_P1;PMS_P2;Temp;Humidity;BMP_temperature;BMP_pressure;BME280_temperature;BME280_humidity;BME280_pressure;Samples;Min_cycle;Max_cycle;Signal;HPM_P1;HPM_P2
2021/04/13 00:02:38;;;;;;;2.35;1.95;;;4.90;87.50;;;;;;4889245;29;20394;-93
2021/04/13 00:05:13;;;;;;;3.80;2.65;;;4.90;87.60;;;;;;4888970;29;20044;-93
2021/04/13 00:07:43;;;;;;;2.67;2.47;;;4.80;87.70;;;;;;4894790;29;20081;-94
2021/04/13 00:10:16;;;;;;;3.45;2.10;;;4.80;87.80;;;;;;4889387;29;20044;-94
2021/04/13 00:12:42;;;;;;;5.25;2.67;;;4.80;88.00;;;;;;4889455;29;20048;-93
2021/04/13 00:15:08;;;;;;;3.38;2.45;;;4.80;88.10;;;;;;4888884;29;20055;-93
2021/04/13 00:17:35;;;;;;;4.57;1.98;;;4.80;88.10;;;;;;4889329;29;20063;-93
2021/04/13 00:20:21;;;;;;;3.28;2.22;;;4.70;88.20;;;;;;4888905;29;20055;-93
2021/04/13 00:22:47;;;;;;;3.58;2.85;;;4.70;88.50;;;;;;4889579;29;20098;-94
2021/04/13 00:25:28;;;;;;;9.10;3.22;;;4.70;88.60;;;;;;4905030;29;20036;-93
2021/04/13 00:27:54;;;;;;;4.50;2.50;;;4.70;88.90;;;;;;4904380;29;20579;-95
2021/04/13 00:30:24;;;;;;;3.20;2.85;;;4.60;88.90;;;;;;4904746;29;20082;-92
2021/04/13 00:33:01;;;;;;;3.22;2.53;;;4.60;89.10;;;;;;4904569;29;20387;-94
2021/04/13 00:38:44;;;;;;;4.03;2.90;;;4.60;89.10;;;;;;4905519;29;20128;-93
2021/04/13 00:41:24;;;;;;;2.33;2.13;;;4.50;89.40;;;;;;4818269;29;20038;-93
2021/04/13 00:44:18;;;;;;;;;;;;;;;;;;;;;
2021/04/13 00:47:00;;;;;;;4.43;3.78;;;4.40;90.00;;;;;;4890807;29;20302;-93
2021/04/13 00:49:29;;;;;;;4.07;3.25;;;4.40;90.10;;;;;;4900285;29;20068;-93
2021/04/13 00:52:17;;;;;;;3.30;2.88;;;4.40;90.10;;;;;;4888674;29;20088;-93
2021/04/13 00:55:08;;;;;;;5.75;3.10;;;4.40;90.10;;;;;;4888535;29;20044;-93
2021/04/13 00:57:46;;;;;;;4.60;3.30;;;4.40;90.10;;;;;;4888416;29;20036;-93
2021/04/13 01:00:21;;;;;;;4.38;3.25;;;4.40;90.00;;;;;;4888370;29;20124;-92
2021/04/13 01:02:46;;;;;;;4.45;3.15;;;4.40;90.00;;;;;;4885321;29;20135;-92
2021/04/13 01:05:21;;;;;;;4.15;3.35;;;4.40;89.90;;;;;;4869253;29;20150;-92
2021/04/13 01:07:52;;;;;;;4.95;3.00;;;4.40;89.90;;;;;;4870048;29;20041;-93
2021/04/13 01:10:31;;;;;;;5.85;3.25;;;4.30;89.80;;;;;;4880661;29;20081;-92
2021/04/13 01:13:12;;;;;;;3.72;2.78;;;4.30;89.80;;;;;;4888263;29;20590;-93
2021/04/13 01:15:42;;;;;;;3.85;3.10;;;4.30;90.00;;;;;;4903866;29;20100;-94
2021/04/13 01:18:14;;;;;;;3.38;2.97;;;4.30;90.00;;;;;;4903224;29;20326;-93
2021/04/13 01:21:11;;;;;;;2.55;2.35;;;4.20;90.00;;;;;;4888267;29;20036;-93
2021/04/13 01:23:52;;;;;;;4.10;3.55;;;4.20;90.00;;;;;;4903183;29;20115;-93
2021/04/13 01:26:21;;;;;;;4.65;3.67;;;4.20;90.00;;;;;;4887803;29;20048;-94
2021/04/13 01:28:50;;;;;;;5.00;3.90;;;4.10;90.20;;;;;;4887557;29;20040;-92
2021/04/13 01:31:52;;;;;;;10.50;3.83;;;4.00;90.30;;;;;;4903324;29;20068;-93
2021/04/13 01:34:28;;;;;;;4.60;3.45;;;4.00;90.40;;;;;;4889016;29;20136;-93
2021/04/13 01:42:49;;;;;;;5.20;3.72;;;4.00;90.60;;;;;;4902803;29;20048;-94
2021/04/13 01:45:26;;;;;;;7.22;3.97;;;3.90;90.80;;;;;;4887346;29;20036;-94
2021/04/13 01:47:54;;;;;;;5.93;4.57;;;3.80;90.80;;;;;;4887026;29;20076;-92
2021/04/13 01:50:25;;;;;;;6.70;4.22;;;3.80;90.80;;;;;;4887460;29;20069;-94
2021/04/13 01:53:01;;;;;;;5.00;4.35;;;3.90;90.90;;;;;;4888428;29;20036;-93
2021/04/13 01:55:34;;;;;;;8.48;3.92;;;3.80;90.90;;;;;;4889863;29;20041;-92
2021/04/13 01:58:17;;;;;;;6.75;3.97;;;3.80;90.90;;;;;;4893202;29;20037;-94
2021/04/13 02:00:49;;;;;;;8.45;4.15;;;3.80;90.80;;;;;;4887485;29;20036;-93
2021/04/13 02:03:44;;;;;;;5.30;3.53;;;3.80;90.80;;;;;;4903056;29;20044;-92
2021/04/13 02:06:19;;;;;;;4.63;4.03;;;3.90;90.80;;;;;;4887956;29;20429;-93
2021/04/13 02:08:51;;;;;;;5.88;4.07;;;3.80;90.80;;;;;;4887758;29;20041;-93
2021/04/13 02:11:23;;;;;;;10.23;4.13;;;3.80;90.90;;;;;;4869157;29;20192;-93
2021/04/13 02:13:55;;;;;;;;;;;3.80;91.00;;;;;;4869386;29;20049;-93
2021/04/13 02:16:34;;;;;;;7.57;4.30;;;3.80;91.00;;;;;;4882945;29;19911;-93
2021/04/13 02:19:06;;;;;;;6.82;3.58;;;3.70;91.10;;;;;;4906417;29;20041;-92
2021/04/13 02:21:38;;;;;;;5.75;4.03;;;3.70;91.10;;;;;;4891784;29;20272;-93
2021/04/13 02:24:10;;;;;;;2.05;1.88;;;3.70;91.10;;;;;;4903370;29;20048;-92
2021/04/13 02:26:43;;;;;;;4.95;4.43;;;3.70;91.10;;;;;;4887230;29;20040;-93
2021/04/13 02:29:09;;;;;;;4.57;3.67;;;3.70;91.20;;;;;;4887644;29;20335;-92
2021/04/13 02:31:43;;;;;;;6.00;4.25;;;3.70;91.20;;;;;;4868676;29;20041;-92
2021/04/13 02:34:19;;;;;;;4.82;3.63;;;3.60;91.40;;;;;;4870864;29;20046;-92
2021/04/13 02:36:50;;;;;;;;;;;3.60;91.30;;;;;;4888045;29;20040;-92
2021/04/13 02:39:25;;;;;;;4.80;4.30;;;3.60;91.30;;;;;;4887341;29;19922;-92
2021/04/13 02:42:24;;;;;;;4.75;4.30;;;3.50;91.50;;;;;;4887690;29;20366;-92
2021/04/13 02:45:22;;;;;;;6.43;4.00;;;3.50;91.60;;;;;;4887213;29;20048;-91
2021/04/13 02:47:52;;;;;;;4.70;4.05;;;3.40;91.80;;;;;;4887350;29;20072;-92
2021/04/13 02:50:22;;;;;;;5.95;3.80;;;3.40;92.20;;;;;;4887648;29;20044;-92
2021/04/13 02:52:51;;;;;;;4.95;4.43;;;3.40;91.90;;;;;;4886994;29;20048;-91
2021/04/13 02:55:32;;;;;;;5.35;4.25;;;3.30;92.00;;;;;;4889756;29;20044;-93
2021/04/13 02:58:25;;;;;;;5.28;4.38;;;3.30;92.10;;;;;;4890148;29;20406;-93
2021/04/13 03:00:54;;;;;;;3.50;3.20;;;3.30;92.00;;;;;;4890549;29;20041;-94
2021/04/13 03:03:35;;;;;;;5.95;4.45;;;3.40;91.90;;;;;;4890248;29;20080;-92
2021/04/13 03:06:07;;;;;;;6.72;3.75;;;3.40;91.90;;;;;;4890504;29;20137;-93
2021/04/13 03:08:50;;;;;;;5.68;4.53;;;3.40;91.90;;;;;;4890260;29;20041;-93
2021/04/13 03:11:20;;;;;;;6.70;4.47;;;3.40;92.00;;;;;;4890236;29;20040;-93
2021/04/13 03:13:47;;;;;;;14.75;4.97;;;3.30;91.90;;;;;;4890052;29;20045;-93
2021/04/13 03:16:19;;;;;;;5.65;4.13;;;3.30;92.00;;;;;;4905235;29;20068;-93
2021/04/13 03:18:50;;;;;;;8.13;3.80;;;3.30;92.20;;;;;;4890016;29;20048;-92
2021/04/13 03:21:28;;;;;;;7.03;4.72;;;3.20;92.20;;;;;;4890002;29;20032;-93
2021/04/13 03:24:02;;;;;;;7.38;4.38;;;3.20;92.30;;;;;;4888898;29;20040;-93
2021/04/13 03:26:37;;;;;;;7.25;5.05;;;3.20;92.30;;;;;;4890172;29;20044;-92
2021/04/13 03:29:11;;;;;;;6.25;4.88;;;3.20;92.30;;;;;;4889983;29;20040;-94
2021/04/13 03:31:47;;;;;;;9.52;5.13;;;3.20;92.20;;;;;;4890002;29;20124;-92
2021/04/13 03:34:21;;;;;;;7.22;5.90;;;3.20;92.30;;;;;;4892315;29;20513;-92
2021/04/13 03:36:53;;;;;;;6.78;5.88;;;3.10;92.40;;;;;;4905805;29;20041;-93
2021/04/13 03:39:44;;;;;;;6.10;4.67;;;3.20;92.40;;;;;;4889617;29;20041;-93
2021/04/13 03:45:26;;;;;;;8.35;6.07;;;3.10;92.40;;;;;;4887367;29;20029;-92
2021/04/13 03:47:53;;;;;;;9.88;5.88;;;3.10;92.60;;;;;;4899089;29;20048;-92
2021/04/13 03:50:40;;;;;;;11.38;6.53;;;3.10;92.60;;;;;;4906260;29;20040;-93
2021/04/13 03:53:26;;;;;;;9.05;5.95;;;3.10;92.80;;;;;;4889485;29;20135;-93
2021/04/13 03:56:12;;;;;;;9.23;6.63;;;3.10;92.60;;;;;;4903818;29;20052;-91
2021/04/13 03:58:48;;;;;;;7.50;6.25;;;3.10;92.60;;;;;;4904982;29;20048;-93
2021/04/13 04:01:33;;;;;;;;;;;;;;;;;;;;;
2021/04/13 04:04:21;;;;;;;8.85;7.35;;;3.10;92.50;;;;;;4847422;29;20038;-91
2021/04/13 04:06:59;;;;;;;8.32;6.13;;;3.10;92.40;;;;;;4831217;29;20038;-92
2021/04/13 04:09:40;;;;;;;12.73;6.30;;;3.10;92.40;;;;;;4870487;29;20045;-93
2021/04/13 04:12:21;;;;;;;9.27;6.40;;;3.10;92.40;;;;;;4889252;29;20044;-92
2021/04/13 04:15:24;;;;;;;9.15;6.65;;;3.10;92.40;;;;;;4904783;29;20063;-92
2021/04/13 04:17:50;;;;;;;12.13;6.72;;;3.10;92.50;;;;;;4904851;29;20036;-92
2021/04/13 04:20:39;;;;;;;13.68;7.32;;;3.10;92.50;;;;;;4889136;29;20040;-92
2021/04/13 04:24:16;;;;;;;13.15;7.65;;;3.10;92.50;;;;;;4889290;29;20045;-93
2021/04/13 07:12:22;;;;;;;10.60;6.40;;;4.90;87.60;;;;;;5854897;23;19922;-92
2021/04/13 07:19:05;;;;;;;;;;;;;;;;;;;;;
2021/04/13 07:28:37;;;;;;;7.40;5.75;;;4.90;87.00;;;;;;4853974;29;20074;-91
2021/04/13 07:31:28;;;;;;;6.10;4.88;;;5.00;86.40;;;;;;4866487;29;20046;-92
2021/04/13 07:37:39;;;;;;;6.70;5.10;;;5.10;86.20;;;;;;4865972;29;20041;-92
2021/04/13 07:40:22;;;;;;;7.65;5.35;;;5.30;85.50;;;;;;4850367;29;20099;-95
2021/04/13 08:10:48;;;;;;;4.45;3.15;;;6.30;80.60;;;;;;4768023;30;20035;-95
2021/04/13 09:30:43;;;;;;;;;;;8.60;68.80;;;;;;4837584;29;20048;-94
2021/04/13 09:34:11;;;;;;;;;;;;;;;;;;;;;
2021/04/13 09:37:36;;;;;;;2.78;1.25;;;8.30;70.50;;;;;;4846490;29;20041;-93
2021/04/13 09:40:39;;;;;;;8.38;1.83;;;8.10;69.60;;;;;;4831120;29;20074;-93
2021/04/13 09:57:32;;;;;;;6.05;1.15;;;8.70;67.90;;;;;;4856229;29;20026;-93
2021/04/13 10:00:39;;;;;;;1.27;0.88;;;8.80;66.80;;;;;;4945069;29;20027;-94
2021/04/13 10:13:50;;;;;;;2.30;0.80;;;8.50;69.40;;;;;;4867606;29;20029;-93
2021/04/13 10:17:27;;;;;;;;;;;;;;;;;;;;;
2021/04/13 10:20:11;;;;;;;2.15;0.82;;;8.80;68.50;;;;;;4869344;29;20044;-94
2021/04/13 10:23:30;;;;;;;2.53;1.27;;;8.90;64.60;;;;;;4926912;29;20055;-93
2021/04/13 10:36:54;;;;;;;3.47;1.35;;;8.70;66.50;;;;;;4944230;29;20099;-95
2021/04/13 10:40:15;;;;;;;;;;;;;;;;;;;;;
2021/04/13 10:46:51;;;;;;;1.75;0.65;;;8.60;68.00;;;;;;4859245;29;20040;-93
2021/04/13 11:28:03;;;;;;;;;;;;;;;;;;;;;
2021/04/13 11:31:06;;;;;;;3.50;0.98;;;9.30;65.00;;;;;;4775026;30;20040;-94
2021/04/13 11:40:53;;;;;;;3.30;1.20;;;9.40;64.50;;;;;;4884847;29;20048;-94
2021/04/13 11:43:38;;;;;;;4.43;1.13;;;9.40;66.40;;;;;;4870312;29;20044;-94
2021/04/13 11:47:03;;;;;;;;;;;;;;;;;;;;;
2021/04/13 11:56:36;;;;;;;4.40;1.02;;;9.70;65.10;;;;;;4847892;29;20048;-95
2021/04/13 11:59:17;;;;;;;2.75;1.02;;;9.80;63.70;;;;;;4847858;29;20098;-92
2021/04/13 12:02:21;;;;;;;1.95;0.77;;;9.90;63.90;;;;;;4830906;29;20088;-93
2021/04/13 12:04:54;;;;;;;4.45;1.17;;;10.00;62.80;;;;;;4896253;29;20430;-95
2021/04/13 12:07:52;;;;;;;5.70;1.50;;;10.10;62.20;;;;;;4907789;29;20044;-93
2021/04/13 12:13:53;;;;;;;5.22;1.40;;;10.00;65.90;;;;;;4942264;29;20055;-93
2021/04/13 12:16:40;;;;;;;3.97;1.35;;;9.90;64.40;;;;;;4942356;29;20038;-94
2021/04/13 12:19:18;;;;;;;2.10;0.98;;;9.80;63.40;;;;;;4926143;29;20107;-92
2021/04/13 12:21:49;;;;;;;1.73;0.85;;;9.90;65.30;;;;;;4928118;29;20031;-91
2021/04/13 12:24:33;;;;;;;4.65;0.68;;;10.20;64.10;;;;;;4925787;29;20136;-91
2021/04/13 12:27:26;;;;;;;3.38;1.27;;;10.60;63.40;;;;;;4940192;29;20070;-93
2021/04/13 12:30:40;;;;;;;1.27;0.80;;;11.10;62.30;;;;;;4938278;29;20045;-94
2021/04/13 12:33:27;;;;;;;0.60;0.50;;;11.30;59.50;;;;;;4909226;29;20394;-93
2021/04/13 12:36:06;;;;;;;2.22;0.70;;;11.40;53.40;;;;;;4926168;29;20043;-93
2021/04/13 12:39:13;;;;;;;0.85;0.63;;;11.30;55.90;;;;;;4925342;29;20421;-93
2021/04/13 12:42:03;;;;;;;2.80;1.05;;;11.10;55.20;;;;;;4887654;29;20559;-95
2021/04/13 12:51:24;;;;;;;3.85;1.17;;;10.40;55.10;;;;;;4942499;29;20066;-92
2021/04/13 12:54:37;;;;;;;4.00;1.00;;;10.30;56.20;;;;;;4941973;29;20035;-93
2021/04/13 12:57:18;;;;;;;3.22;1.33;;;10.20;57.00;;;;;;4927548;29;20046;-93
2021/04/13 12:59:45;;;;;;;6.93;1.88;;;10.30;57.00;;;;;;4925711;29;20127;-91
2021/04/13 13:02:37;;;;;;;3.40;1.08;;;10.30;58.10;;;;;;4925459;29;20066;-92
2021/04/13 13:05:20;;;;;;;6.38;1.90;;;10.50;57.40;;;;;;4925345;29;20040;-93
2021/04/13 13:07:58;;;;;;;3.58;1.05;;;10.60;56.70;;;;;;4922652;29;20054;-91
2021/04/13 13:10:41;;;;;;;3.40;1.42;;;10.70;57.40;;;;;;4927376;29;20026;-93
2021/04/13 13:13:13;;;;;;;5.85;1.35;;;10.90;55.30;;;;;;4944975;29;20125;-93
2021/04/13 13:15:42;;;;;;;0.98;0.98;;;11.00;54.80;;;;;;4938557;29;20043;-93
2021/04/13 13:22:09;;;;;;;1.73;1.10;;;10.90;57.20;;;;;;4941805;29;20039;-93
2021/04/13 13:28:12;;;;;;;1.85;1.23;;;11.10;57.40;;;;;;4940585;29;20035;-93
2021/04/13 13:30:38;;;;;;;2.00;1.25;;;11.10;57.50;;;;;;4925251;29;20047;-92
2021/04/13 13:33:04;;;;;;;4.10;1.20;;;11.20;56.90;;;;;;4940996;29;20066;-93
2021/04/13 13:35:30;;;;;;;1.58;1.10;;;11.30;57.00;;;;;;4941159;29;20397;-93
2021/04/13 13:37:59;;;;;;;2.53;0.90;;;11.40;55.20;;;;;;4941672;29;20059;-92
2021/04/13 13:40:31;;;;;;;2.40;1.02;;;11.40;53.70;;;;;;4943151;29;20050;-92
2021/04/13 13:42:58;;;;;;;1.88;1.13;;;11.40;55.00;;;;;;4943846;29;20133;-93
2021/04/13 13:45:36;;;;;;;2.83;1.75;;;11.40;56.60;;;;;;4929323;29;20039;-93
2021/04/13 13:48:24;;;;;;;3.50;0.95;;;11.50;56.50;;;;;;4925423;29;20122;-94
2021/04/13 13:51:32;;;;;;;4.47;1.42;;;11.50;54.60;;;;;;4934536;29;20043;-93
2021/04/13 13:54:34;;;;;;;4.00;1.05;;;11.40;55.10;;;;;;4925162;29;20039;-94
2021/04/13 13:57:19;;;;;;;2.03;1.25;;;11.30;54.70;;;;;;4865210;29;20596;-93
2021/04/13 14:00:33;;;;;;;3.92;1.17;;;11.00;56.10;;;;;;4920317;29;20126;-94
2021/04/13 14:03:26;;;;;;;3.05;1.90;;;10.70;59.40;;;;;;4910036;29;20036;-93
2021/04/13 14:06:14;;;;;;;6.05;2.72;;;10.40;63.10;;;;;;4937304;29;20064;-93
2021/04/13 14:08:51;;;;;;;2.60;1.63;;;10.00;66.30;;;;;;4906236;29;20123;-91
2021/04/13 14:11:25;;;;;;;4.47;1.90;;;9.70;69.50;;;;;;4906332;29;20040;-92
2021/04/13 14:14:22;;;;;;;7.03;5.70;;;9.50;71.10;;;;;;4921418;29;20040;-92
2021/04/13 14:16:52;;;;;;;3.53;2.05;;;9.30;72.10;;;;;;4914932;29;20036;-91
2021/04/13 14:19:24;;;;;;;5.65;2.30;;;9.20;72.10;;;;;;4926672;29;20393;-91
2021/04/13 14:22:14;;;;;;;5.37;2.57;;;9.20;73.90;;;;;;4908776;29;20072;-92
2021/04/13 14:25:05;;;;;;;3.67;2.38;;;9.30;74.80;;;;;;4920356;29;20051;-93
2021/04/13 14:27:31;;;;;;;10.85;7.00;;;9.40;77.40;;;;;;4924931;29;20094;-91
2021/04/13 14:29:56;;;;;;;5.55;4.95;;;9.40;74.10;;;;;;4924599;29;20122;-89
2021/04/13 14:32:24;;;;;;;6.05;3.17;;;9.60;75.90;;;;;;4939891;29;20130;-88
2021/04/13 14:34:50;;;;;;;3.13;2.28;;;9.70;66.60;;;;;;4940462;29;20091;-90
2021/04/13 14:37:15;;;;;;;6.20;3.47;;;9.80;64.40;;;;;;4944417;29;20072;-90
2021/04/13 14:39:43;;;;;;;3.05;1.45;;;9.80;62.30;;;;;;4940939;29;20418;-91
2021/04/13 14:42:11;;;;;;;5.32;2.08;;;9.70;61.80;;;;;;4940844;29;20038;-90
2021/04/13 14:44:37;;;;;;;2.80;1.33;;;9.60;63.30;;;;;;4925550;29;20035;-90
2021/04/13 14:47:07;;;;;;;6.72;3.78;;;9.60;64.40;;;;;;4926872;29;20044;-92
2021/04/13 14:49:32;;;;;;;8.02;2.45;;;9.50;63.00;;;;;;4924658;29;20046;-93
2021/04/13 14:51:58;;;;;;;3.08;1.42;;;9.50;64.00;;;;;;4928569;29;20039;-92
2021/04/13 14:54:24;;;;;;;4.25;2.05;;;9.40;63.10;;;;;;4930079;29;20134;-91
2021/04/13 14:56:51;;;;;;;5.85;3.08;;;9.50;63.80;;;;;;4927938;29;20274;-91
2021/04/13 14:59:17;;;;;;;4.28;1.80;;;9.60;63.40;;;;;;4928098;29;20038;-91
2021/04/13 15:01:43;;;;;;;6.20;2.33;;;9.80;64.70;;;;;;4927800;29;20043;-91
2021/04/13 15:04:09;;;;;;;2.10;1.25;;;10.10;62.80;;;;;;4927968;29;20126;-91
2021/04/13 15:06:35;;;;;;;2.58;1.20;;;10.20;61.90;;;;;;4928001;29;20044;-91
2021/04/13 15:09:03;;;;;;;3.42;1.60;;;10.30;64.20;;;;;;4926297;29;20071;-91
2021/04/13 15:11:34;;;;;;;2.70;1.33;;;10.50;61.70;;;;;;4927623;29;20039;-91
2021/04/13 15:13:59;;;;;;;3.78;1.70;;;10.60;61.90;;;;;;4927375;29;20035;-90
2021/04/13 15:16:25;;;;;;;3.70;1.52;;;10.70;59.90;;;;;;4927612;29;20035;-91
2021/04/13 15:18:57;;;;;;;2.65;1.38;;;10.70;58.00;;;;;;4944435;29;20353;-92
2021/04/13 15:21:26;;;;;;;3.97;1.17;;;10.80;57.30;;;;;;4927267;29;20038;-92
2021/04/13 15:23:53;;;;;;;2.95;1.55;;;10.90;59.20;;;;;;4927124;29;20429;-93
2021/04/13 15:26:43;;;;;;;;;;;;;;;;;;;;;
2021/04/13 15:29:12;;;;;;;3.58;1.33;;;11.20;59.40;;;;;;4933871;29;20435;-93
2021/04/13 15:38:49;;;;;;;3.80;1.10;;;11.60;57.00;;;;;;4912843;29;20031;-93
2021/04/13 15:41:27;;;;;;;2.90;1.10;;;11.50;56.70;;;;;;4924493;29;20066;-92
2021/04/13 15:44:02;;;;;;;1.98;0.80;;;11.50;54.80;;;;;;4927574;29;20043;-93
2021/04/13 15:46:52;;;;;;;2.05;1.13;;;11.50;54.50;;;;;;4913462;29;20039;-93
2021/04/13 15:49:22;;;;;;;2.65;0.95;;;11.60;55.30;;;;;;4922000;29;20047;-90
2021/04/13 15:55:14;;;;;;;2.22;0.75;;;11.40;55.30;;;;;;4942291;29;20413;-93
2021/04/13 15:57:57;;;;;;;2.95;1.00;;;11.30;52.10;;;;;;4926923;29;20048;-92
2021/04/13 16:00:43;;;;;;;1.87;1.13;;;11.30;54.20;;;;;;4925640;29;20039;-92
2021/04/13 16:03:11;;;;;;;1.85;1.15;;;11.20;55.90;;;;;;4925858;29;20044;-94
2021/04/13 16:05:39;;;;;;;3.65;0.82;;;11.20;53.10;;;;;;4926157;29;20054;-93
2021/04/13 16:11:47;;;;;;;3.92;1.38;;;11.00;52.10;;;;;;4942588;29;20406;-92
2021/04/13 16:17:48;;;;;;;1.85;0.95;;;10.80;52.10;;;;;;4855985;29;20052;-94
2021/04/13 16:20:30;;;;;;;;;;;;;;;;;;;;;
2021/04/13 16:23:41;;;;;;;6.00;1.40;;;10.80;52.40;;;;;;4883765;29;20074;-93
2021/04/13 16:26:10;;;;;;;2.03;1.05;;;10.90;54.50;;;;;;4878512;29;20048;-93
2021/04/13 16:28:47;;;;;;;2.80;1.08;;;10.80;55.20;;;;;;4918393;29;20115;-93
2021/04/13 16:32:06;;;;;;;2.40;1.13;;;10.70;56.60;;;;;;4923207;29;20047;-94
2021/04/13 16:34:44;;;;;;;3.55;1.20;;;10.60;57.70;;;;;;4917295;29;20044;-93
2021/04/13 16:49:06;;;;;;;1.48;0.80;;;10.70;56.40;;;;;;4774767;30;20081;-92
2021/04/13 17:02:19;;;;;;;2.10;0.68;;;10.60;57.10;;;;;;5463088;22;16290463;-93
2021/04/13 17:04:58;;;;;;;2.92;0.80;;;10.10;55.50;;;;;;6168986;23;20644;-93
2021/04/13 17:08:03;;;;;;;3.88;1.80;;;9.80;57.10;;;;;;6169478;23;20013;-94
2021/04/13 17:11:11;;;;;;;0.82;0.60;;;9.60;58.80;;;;;;6175491;23;20088;-94
2021/04/13 17:37:48;;;;;;;5.47;1.60;;;9.20;61.60;;;;;;6023975;23;20019;-93
2021/04/13 17:40:18;;;;;;;4.05;1.80;;;9.10;62.20;;;;;;6001878;23;20229;-90
2021/04/13 17:43:03;;;;;;;3.90;1.30;;;9.00;62.70;;;;;;6045976;23;20433;-91
2021/04/13 17:45:28;;;;;;;5.28;1.38;;;8.90;64.30;;;;;;6055598;23;20073;-91
2021/04/13 17:48:06;;;;;;;4.10;1.27;;;8.70;65.90;;;;;;6149136;23;20026;-92
2021/04/13 17:50:45;;;;;;;1.73;1.20;;;8.60;67.50;;;;;;6169715;23;20081;-92
2021/04/13 17:57:03;;;;;;;5.10;1.75;;;8.30;68.90;;;;;;6171162;23;20360;-92
2021/04/13 17:59:31;;;;;;;2.17;1.20;;;8.20;70.10;;;;;;6176913;23;20033;-93
2021/04/13 18:02:42;;;;;;;;;;;;;;;;;;;;;
2021/04/13 18:05:34;;;;;;;3.00;1.38;;;8.00;70.60;;;;;;6146314;23;20036;-92
2021/04/13 18:08:31;;;;;;;6.68;1.67;;;7.90;71.20;;;;;;6162044;23;20014;-93
2021/04/13 18:15:06;;;;;;;2.58;1.05;;;7.80;71.20;;;;;;6163573;23;20000;-95
2021/04/13 18:17:53;;;;;;;3.47;1.92;;;7.70;71.50;;;;;;6162808;23;20016;-93
2021/04/13 18:20:41;;;;;;;9.50;1.38;;;7.70;71.60;;;;;;6163808;23;20065;-95
2021/04/13 18:30:12;;;;;;;1.70;1.13;;;7.50;73.30;;;;;;6099418;23;20031;-92
2021/04/13 19:00:12;;;;;;;2.50;1.58;;;6.80;74.70;;;;;;6072559;23;20607;-90
